sensor_id;sensor_type;location;lat;lon;timestamp;temperature;humidity
15554;DHT22;7878;44.632;10.942;2022-11-11T00:02:00;16.50;99.90
15554;DHT22;7878;44.632;10.942;2022-11-11T00:04:25;16.50;99.90
15554;DHT22;7878;44.632;10.942;2022-11-11T00:06:52;16.50;99.90
15554;DHT22;7878;44.632;10.942;2022-11-11T00:09:18;16.50;99.90
15554;DHT22;7878;44.632;10.942;2022-11-11T00:11:44;16.40;99.90
15554;DHT22;7878;44.632;10.942;2022-11-11T00:14:10;16.50;99.90
15554;DHT22;7878;44.632;10.942;2022-11-11T00:16:35;16.50;99.90
15554;DHT22;7878;44.632;10.942;2022-11-11T00:19:19;16.50;99.90
15554;DHT22;7878;44.632;10.942;2022-11-11T00:22:20;16.40;99.90
15554;DHT22;7878;44.632;10.942;2022-11-11T00:25:04;16.40;99.90
15554;DHT22;7878;44.632;10.942;2022-11-11T00:27:30;16.40;99.90
15554;DHT22;7878;44.632;10.942;2022-11-11T00:29:56;16.40;99.90
15554;DHT22;7878;44.632;10.942;2022-11-11T00:32:22;16.40;99.90
15554;DHT22;7878;44.632;10.942;2022-11-11T00:34:55;16.40;99.90
15554;DHT22;7878;44.632;10.942;2022-11-11T00:37:40;16.40;99.90
15554;DHT22;7878;44.632;10.942;2022-11-11T00:40:06;16.40;99.90
15554;DHT22;7878;44.632;10.942;2022-11-11T00:42:32;16.40;99.90
15554;DHT22;7878;44.632;10.942;2022-11-11T00:44:58;16.40;99.90
15554;DHT22;7878;44.632;10.942;2022-11-11T00:47:24;16.40;99.90
15554;DHT22;7878;44.632;10.942;2022-11-11T00:50:16;16.40;99.90
15554;DHT22;7878;44.632;10.942;2022-11-11T00:53:07;16.40;99.90
15554;DHT22;7878;44.632;10.942;2022-11-11T00:55:33;16.40;99.90
15554;DHT22;7878;44.632;10.942;2022-11-11T00:57:59;16.40;99.90
15554;DHT22;7878;44.632;10.942;2022-11-11T01:00:24;16.40;99.90
15554;DHT22;7878;44.632;10.942;2022-11-11T01:02:50;16.40;99.90
15554;DHT22;7878;44.632;10.942;2022-11-11T01:05:16;16.40;99.90
15554;DHT22;7878;44.632;10.942;2022-11-11T01:07:41;16.40;99.90
15554;DHT22;7878;44.632;10.942;2022-11-11T01:10:07;16.40;99.90
15554;DHT22;7878;44.632;10.942;2022-11-11T01:12:33;16.40;99.90
15554;DHT22;7878;44.632;10.942;2022-11-11T01:14:59;16.40;99.90
15554;DHT22;7878;44.632;10.942;2022-11-11T01:17:24;16.40;99.90
15554;DHT22;7878;44.632;10.942;2022-11-11T01:19:50;16.40;99.90
15554;DHT22;7878;44.632;10.942;2022-11-11T01:22:15;16.40;99.90
15554;DHT22;7878;44.632;10.942;2022-11-11T01:24:41;16.40;99.90
15554;DHT22;7878;44.632;10.942;2022-11-11T01:27:07;16.40;99.90
15554;DHT22;7878;44.632;10.942;2022-11-11T01:29:32;16.40;99.90
15554;DHT22;7878;44.632;10.942;2022-11-11T01:31:58;16.30;99.90
15554;DHT22;7878;44.632;10.942;2022-11-11T01:34:24;16.30;99.90
15554;DHT22;7878;44.632;10.942;2022-11-11T01:36:49;16.30;99.90
15554;DHT22;7878;44.632;10.942;2022-11-11T01:39:15;16.30;99.90
15554;DHT22;7878;44.632;10.942;2022-11-11T01:41:41;16.40;99.90
15554;DHT22;7878;44.632;10.942;2022-11-11T01:49:27;16.30;99.90
15554;DHT22;7878;44.632;10.942;2022-11-11T01:57:26;16.30;99.90
15554;DHT22;7878;44.632;10.942;2022-11-11T01:59:56;16.30;99.90
15554;DHT22;7878;44.632;10.942;2022-11-11T02:02:36;16.30;99.90
15554;DHT22;7878;44.632;10.942;2022-11-11T02:05:04;16.30;99.90
15554;DHT22;7878;44.632;10.942;2022-11-11T02:07:49;16.20;99.90
15554;DHT22;7878;44.632;10.942;2022-11-11T02:10:21;16.20;99.90
15554;DHT22;7878;44.632;10.942;2022-11-11T02:12:47;16.20;99.90
15554;DHT22;7878;44.632;10.942;2022-11-11T02:15:32;16.20;99.90
15554;DHT22;7878;44.632;10.942;2022-11-11T02:17:58;16.20;99.90
15554;DHT22;7878;44.632;10.942;2022-11-11T02:20:26;16.30;99.90
15554;DHT22;7878;44.632;10.942;2022-11-11T02:23:17;16.30;99.90
15554;DHT22;7878;44.632;10.942;2022-11-11T02:25:48;16.30;99.90
15554;DHT22;7878;44.632;10.942;2022-11-11T02:28:15;16.30;99.90
15554;DHT22;7878;44.632;10.942;2022-11-11T02:30:42;16.20;99.90
15554;DHT22;7878;44.632;10.942;2022-11-11T02:33:07;16.30;99.90
15554;DHT22;7878;44.632;10.942;2022-11-11T02:35:35;16.30;99.90
15554;DHT22;7878;44.632;10.942;2022-11-11T02:38:03;16.30;99.90
15554;DHT22;7878;44.632;10.942;2022-11-11T02:40:38;16.30;99.90
15554;DHT22;7878;44.632;10.942;2022-11-11T02:43:24;16.30;99.90
15554;DHT22;7878;44.632;10.942;2022-11-11T02:45:50;16.30;99.90
15554;DHT22;7878;44.632;10.942;2022-11-11T02:48:15;16.30;99.90
15554;DHT22;7878;44.632;10.942;2022-11-11T02:50:42;16.30;99.90
15554;DHT22;7878;44.632;10.942;2022-11-11T02:53:07;16.30;99.90
15554;DHT22;7878;44.632;10.942;2022-11-11T02:55:33;16.30;99.90
15554;DHT22;7878;44.632;10.942;2022-11-11T02:57:59;16.30;99.90
15554;DHT22;7878;44.632;10.942;2022-11-11T03:00:25;16.30;99.90
15554;DHT22;7878;44.632;10.942;2022-11-11T03:02:51;16.30;99.90
15554;DHT22;7878;44.632;10.942;2022-11-11T03:05:16;16.30;99.90
15554;DHT22;7878;44.632;10.942;2022-11-11T03:07:42;16.20;99.90
15554;DHT22;7878;44.632;10.942;2022-11-11T03:10:08;16.20;99.90
15554;DHT22;7878;44.632;10.942;2022-11-11T03:12:33;16.20;99.90
15554;DHT22;7878;44.632;10.942;2022-11-11T03:14:59;16.20;99.90
15554;DHT22;7878;44.632;10.942;2022-11-11T03:17:25;16.20;99.90
15554;DHT22;7878;44.632;10.942;2022-11-11T03:23:01;16.20;99.90
15554;DHT22;7878;44.632;10.942;2022-11-11T03:25:27;16.20;99.90
15554;DHT22;7878;44.632;10.942;2022-11-11T03:28:04;16.20;99.90
15554;DHT22;7878;44.632;10.942;2022-11-11T03:30:29;16.20;99.90
15554;DHT22;7878;44.632;10.942;2022-11-11T03:32:55;16.10;99.90
15554;DHT22;7878;44.632;10.942;2022-11-11T03:35:21;16.10;99.90
15554;DHT22;7878;44.632;10.942;2022-11-11T03:37:46;16.20;99.90
15554;DHT22;7878;44.632;10.942;2022-11-11T03:40:30;16.10;99.90
15554;DHT22;7878;44.632;10.942;2022-11-11T03:42:56;16.20;99.90
15554;DHT22;7878;44.632;10.942;2022-11-11T03:45:22;16.10;99.90
15554;DHT22;7878;44.632;10.942;2022-11-11T03:47:47;16.10;99.90
15554;DHT22;7878;44.632;10.942;2022-11-11T03:50:13;16.10;99.90
15554;DHT22;7878;44.632;10.942;2022-11-11T03:52:41;16.10;99.90
15554;DHT22;7878;44.632;10.942;2022-11-11T03:55:10;16.10;99.90
15554;DHT22;7878;44.632;10.942;2022-11-11T03:57:44;16.10;99.90
15554;DHT22;7878;44.632;10.942;2022-11-11T04:00:11;16.10;99.90
15554;DHT22;7878;44.632;10.942;2022-11-11T04:02:38;16.10;99.90
15554;DHT22;7878;44.632;10.942;2022-11-11T04:05:22;16.10;99.90
15554;DHT22;7878;44.632;10.942;2022-11-11T04:08:15;16.10;99.90
15554;DHT22;7878;44.632;10.942;2022-11-11T04:11:08;16.00;99.90
15554;DHT22;7878;44.632;10.942;2022-11-11T04:13:34;16.00;99.90
15554;DHT22;7878;44.632;10.942;2022-11-11T04:16:19;15.90;99.90
15554;DHT22;7878;44.632;10.942;2022-11-11T04:18:45;15.90;99.90
15554;DHT22;7878;44.632;10.942;2022-11-11T04:21:29;15.90;99.90
15554;DHT22;7878;44.632;10.942;2022-11-11T04:24:18;15.90;99.90
15554;DHT22;7878;44.632;10.942;2022-11-11T04:27:11;15.80;99.90
15554;DHT22;7878;44.632;10.942;2022-11-11T04:29:37;15.80;99.90
15554;DHT22;7878;44.632;10.942;2022-11-11T04:32:14;15.80;99.90
15554;DHT22;7878;44.632;10.942;2022-11-11T04:35:01;15.80;99.90
15554;DHT22;7878;44.632;10.942;2022-11-11T04:37:30;15.70;99.90
15554;DHT22;7878;44.632;10.942;2022-11-11T04:39:56;15.70;99.90
15554;DHT22;7878;44.632;10.942;2022-11-11T04:42:40;15.70;99.90
15554;DHT22;7878;44.632;10.942;2022-11-11T04:45:08;15.60;99.90
15554;DHT22;7878;44.632;10.942;2022-11-11T04:48:09;15.60;99.90
15554;DHT22;7878;44.632;10.942;2022-11-11T04:50:37;15.60;99.90
15554;DHT22;7878;44.632;10.942;2022-11-11T04:53:05;15.50;99.90
15554;DHT22;7878;44.632;10.942;2022-11-11T04:55:31;15.50;99.90
15554;DHT22;7878;44.632;10.942;2022-11-11T04:58:17;15.50;99.90
15554;DHT22;7878;44.632;10.942;2022-11-11T05:00:43;15.50;99.90
15554;DHT22;7878;44.632;10.942;2022-11-11T05:03:10;15.50;99.90
15554;DHT22;7878;44.632;10.942;2022-11-11T05:05:58;15.50;99.90
15554;DHT22;7878;44.632;10.942;2022-11-11T05:08:47;15.60;99.90
15554;DHT22;7878;44.632;10.942;2022-11-11T05:11:34;15.60;99.90
15554;DHT22;7878;44.632;10.942;2022-11-11T05:14:05;15.60;99.90
15554;DHT22;7878;44.632;10.942;2022-11-11T05:16:51;15.60;99.90
15554;DHT22;7878;44.632;10.942;2022-11-11T05:19:36;15.50;99.90
15554;DHT22;7878;44.632;10.942;2022-11-11T05:22:29;15.50;99.90
15554;DHT22;7878;44.632;10.942;2022-11-11T05:24:56;15.50;99.90
15554;DHT22;7878;44.632;10.942;2022-11-11T05:27:40;15.50;99.90
15554;DHT22;7878;44.632;10.942;2022-11-11T05:30:08;15.50;99.90
15554;DHT22;7878;44.632;10.942;2022-11-11T05:32:34;15.50;99.90
15554;DHT22;7878;44.632;10.942;2022-11-11T05:34:59;15.50;99.90
15554;DHT22;7878;44.632;10.942;2022-11-11T05:37:25;15.40;99.90
15554;DHT22;7878;44.632;10.942;2022-11-11T05:39:51;15.40;99.90
15554;DHT22;7878;44.632;10.942;2022-11-11T05:42:16;15.40;99.90
15554;DHT22;7878;44.632;10.942;2022-11-11T05:44:42;15.40;99.90
15554;DHT22;7878;44.632;10.942;2022-11-11T05:47:08;15.30;99.90
15554;DHT22;7878;44.632;10.942;2022-11-11T05:49:34;15.30;99.90
15554;DHT22;7878;44.632;10.942;2022-11-11T05:52:00;15.30;99.90
15554;DHT22;7878;44.632;10.942;2022-11-11T05:54:25;15.30;99.90
15554;DHT22;7878;44.632;10.942;2022-11-11T05:56:51;15.30;99.90
15554;DHT22;7878;44.632;10.942;2022-11-11T05:59:17;15.30;99.90
15554;DHT22;7878;44.632;10.942;2022-11-11T06:01:43;15.30;99.90
15554;DHT22;7878;44.632;10.942;2022-11-11T06:04:08;15.30;99.90
15554;DHT22;7878;44.632;10.942;2022-11-11T06:06:35;15.30;99.90
15554;DHT22;7878;44.632;10.942;2022-11-11T06:09:01;15.30;99.90
15554;DHT22;7878;44.632;10.942;2022-11-11T06:11:27;15.30;99.90
15554;DHT22;7878;44.632;10.942;2022-11-11T06:13:53;15.30;99.90
15554;DHT22;7878;44.632;10.942;2022-11-11T06:16:19;15.30;99.90
15554;DHT22;7878;44.632;10.942;2022-11-11T06:18:45;15.30;99.90
15554;DHT22;7878;44.632;10.942;2022-11-11T06:21:11;15.20;99.90
15554;DHT22;7878;44.632;10.942;2022-11-11T06:23:36;15.20;99.90
15554;DHT22;7878;44.632;10.942;2022-11-11T06:26:02;15.20;99.90
15554;DHT22;7878;44.632;10.942;2022-11-11T06:28:58;15.20;99.90
15554;DHT22;7878;44.632;10.942;2022-11-11T06:31:25;15.20;99.90
15554;DHT22;7878;44.632;10.942;2022-11-11T06:33:51;15.30;99.90
15554;DHT22;7878;44.632;10.942;2022-11-11T06:36:18;15.30;99.90
15554;DHT22;7878;44.632;10.942;2022-11-11T06:38:45;15.40;99.90
15554;DHT22;7878;44.632;10.942;2022-11-11T06:41:11;15.40;99.90
15554;DHT22;7878;44.632;10.942;2022-11-11T06:43:43;15.40;99.90
15554;DHT22;7878;44.632;10.942;2022-11-11T06:46:20;15.50;99.90
15554;DHT22;7878;44.632;10.942;2022-11-11T06:48:46;15.60;99.90
15554;DHT22;7878;44.632;10.942;2022-11-11T06:51:12;15.60;99.90
15554;DHT22;7878;44.632;10.942;2022-11-11T06:53:39;15.60;99.90
15554;DHT22;7878;44.632;10.942;2022-11-11T06:56:05;15.60;99.90
15554;DHT22;7878;44.632;10.942;2022-11-11T06:58:32;15.70;99.90
15554;DHT22;7878;44.632;10.942;2022-11-11T07:00:58;15.70;99.90
15554;DHT22;7878;44.632;10.942;2022-11-11T07:03:23;15.80;99.90
15554;DHT22;7878;44.632;10.942;2022-11-11T07:05:49;15.80;99.90
15554;DHT22;7878;44.632;10.942;2022-11-11T07:08:17;15.80;99.90
15554;DHT22;7878;44.632;10.942;2022-11-11T07:10:45;15.80;99.90
15554;DHT22;7878;44.632;10.942;2022-11-11T07:13:12;15.90;99.90
15554;DHT22;7878;44.632;10.942;2022-11-11T07:15:38;15.90;99.90
15554;DHT22;7878;44.632;10.942;2022-11-11T07:18:04;16.00;99.90
15554;DHT22;7878;44.632;10.942;2022-11-11T07:20:30;16.00;99.90
15554;DHT22;7878;44.632;10.942;2022-11-11T07:22:56;16.10;99.90
15554;DHT22;7878;44.632;10.942;2022-11-11T07:25:22;16.10;99.90
15554;DHT22;7878;44.632;10.942;2022-11-11T07:27:48;16.10;99.90
15554;DHT22;7878;44.632;10.942;2022-11-11T07:30:14;16.10;99.90
15554;DHT22;7878;44.632;10.942;2022-11-11T07:32:47;16.20;99.90
15554;DHT22;7878;44.632;10.942;2022-11-11T07:35:14;16.20;99.90
15554;DHT22;7878;44.632;10.942;2022-11-11T07:37:41;16.30;99.90
15554;DHT22;7878;44.632;10.942;2022-11-11T07:40:07;16.30;99.90
15554;DHT22;7878;44.632;10.942;2022-11-11T07:42:37;16.30;99.90
15554;DHT22;7878;44.632;10.942;2022-11-11T07:45:04;16.40;99.90
15554;DHT22;7878;44.632;10.942;2022-11-11T07:47:30;16.40;99.90
15554;DHT22;7878;44.632;10.942;2022-11-11T07:49:56;16.50;99.90
15554;DHT22;7878;44.632;10.942;2022-11-11T07:52:22;16.50;99.90
15554;DHT22;7878;44.632;10.942;2022-11-11T07:54:49;16.50;99.90
15554;DHT22;7878;44.632;10.942;2022-11-11T07:57:15;16.50;99.90
15554;DHT22;7878;44.632;10.942;2022-11-11T07:59:40;16.50;99.90
15554;DHT22;7878;44.632;10.942;2022-11-11T08:02:10;16.60;99.90
15554;DHT22;7878;44.632;10.942;2022-11-11T08:04:36;16.60;99.90
15554;DHT22;7878;44.632;10.942;2022-11-11T08:07:01;16.70;99.90
15554;DHT22;7878;44.632;10.942;2022-11-11T08:09:27;16.70;99.90
15554;DHT22;7878;44.632;10.942;2022-11-11T08:11:53;16.80;99.90
15554;DHT22;7878;44.632;10.942;2022-11-11T08:14:37;16.80;99.90
15554;DHT22;7878;44.632;10.942;2022-11-11T08:17:02;16.80;99.90
15554;DHT22;7878;44.632;10.942;2022-11-11T08:19:28;16.90;99.90
15554;DHT22;7878;44.632;10.942;2022-11-11T08:21:54;17.00;99.90
15554;DHT22;7878;44.632;10.942;2022-11-11T08:24:19;16.90;99.90
15554;DHT22;7878;44.632;10.942;2022-11-11T08:26:46;17.00;99.90
15554;DHT22;7878;44.632;10.942;2022-11-11T08:29:11;17.10;99.90
15554;DHT22;7878;44.632;10.942;2022-11-11T08:31:37;17.10;99.90
15554;DHT22;7878;44.632;10.942;2022-11-11T08:34:04;17.10;99.90
15554;DHT22;7878;44.632;10.942;2022-11-11T08:36:30;17.10;99.90
15554;DHT22;7878;44.632;10.942;2022-11-11T08:38:56;17.10;99.90
15554;DHT22;7878;44.632;10.942;2022-11-11T08:41:22;17.10;99.90
15554;DHT22;7878;44.632;10.942;2022-11-11T08:43:52;17.10;99.90
15554;DHT22;7878;44.632;10.942;2022-11-11T08:46:18;17.10;99.90
15554;DHT22;7878;44.632;10.942;2022-11-11T08:48:43;17.20;99.90
15554;DHT22;7878;44.632;10.942;2022-11-11T08:51:09;17.20;99.90
15554;DHT22;7878;44.632;10.942;2022-11-11T08:53:35;17.30;99.90
15554;DHT22;7878;44.632;10.942;2022-11-11T08:56:02;17.30;99.90
15554;DHT22;7878;44.632;10.942;2022-11-11T08:58:28;17.40;99.90
15554;DHT22;7878;44.632;10.942;2022-11-11T09:00:53;17.40;99.90
15554;DHT22;7878;44.632;10.942;2022-11-11T09:03:19;17.50;99.90
15554;DHT22;7878;44.632;10.942;2022-11-11T09:05:45;17.50;99.90
15554;DHT22;7878;44.632;10.942;2022-11-11T09:08:12;17.50;99.90
15554;DHT22;7878;44.632;10.942;2022-11-11T09:10:38;17.60;99.90
15554;DHT22;7878;44.632;10.942;2022-11-11T09:13:03;17.70;99.90
15554;DHT22;7878;44.632;10.942;2022-11-11T09:15:29;17.70;99.90
15554;DHT22;7878;44.632;10.942;2022-11-11T09:17:55;17.70;99.90
15554;DHT22;7878;44.632;10.942;2022-11-11T09:20:22;17.80;99.90
15554;DHT22;7878;44.632;10.942;2022-11-11T09:22:48;17.80;99.90
15554;DHT22;7878;44.632;10.942;2022-11-11T09:25:14;17.80;99.90
15554;DHT22;7878;44.632;10.942;2022-11-11T09:27:40;17.80;99.90
15554;DHT22;7878;44.632;10.942;2022-11-11T09:30:08;17.90;99.90
15554;DHT22;7878;44.632;10.942;2022-11-11T09:32:33;17.90;99.90
15554;DHT22;7878;44.632;10.942;2022-11-11T09:34:59;17.90;99.90
15554;DHT22;7878;44.632;10.942;2022-11-11T09:37:26;18.00;99.90
15554;DHT22;7878;44.632;10.942;2022-11-11T09:39:51;18.00;99.90
15554;DHT22;7878;44.632;10.942;2022-11-11T09:50:27;18.10;99.90
15554;DHT22;7878;44.632;10.942;2022-11-11T09:53:16;18.10;99.90
15554;DHT22;7878;44.632;10.942;2022-11-11T09:55:46;18.30;99.90
15554;DHT22;7878;44.632;10.942;2022-11-11T09:58:21;18.40;99.90
15554;DHT22;7878;44.632;10.942;2022-11-11T10:01:00;18.60;99.90
15554;DHT22;7878;44.632;10.942;2022-11-11T10:03:28;18.70;99.90
15554;DHT22;7878;44.632;10.942;2022-11-11T10:08:29;18.90;99.90
15554;DHT22;7878;44.632;10.942;2022-11-11T10:10:59;19.00;99.90
15554;DHT22;7878;44.632;10.942;2022-11-11T10:13:35;19.30;99.90
15554;DHT22;7878;44.632;10.942;2022-11-11T10:16:45;20.00;99.90
15554;DHT22;7878;44.632;10.942;2022-11-11T10:19:22;21.30;99.90
15554;DHT22;7878;44.632;10.942;2022-11-11T10:21:57;23.60;99.90
15554;DHT22;7878;44.632;10.942;2022-11-11T10:24:32;25.90;99.90
15554;DHT22;7878;44.632;10.942;2022-11-11T10:27:03;28.10;99.90
15554;DHT22;7878;44.632;10.942;2022-11-11T10:29:38;29.70;99.90
15554;DHT22;7878;44.632;10.942;2022-11-11T10:32:18;30.80;97.00
15554;DHT22;7878;44.632;10.942;2022-11-11T10:34:44;31.60;93.40
15554;DHT22;7878;44.632;10.942;2022-11-11T10:37:39;32.30;95.00
15554;DHT22;7878;44.632;10.942;2022-11-11T10:40:18;32.60;88.80
15554;DHT22;7878;44.632;10.942;2022-11-11T10:42:46;32.80;91.30
15554;DHT22;7878;44.632;10.942;2022-11-11T10:45:40;32.70;91.50
15554;DHT22;7878;44.632;10.942;2022-11-11T10:48:15;31.80;86.00
15554;DHT22;7878;44.632;10.942;2022-11-11T10:50:46;31.10;90.10
15554;DHT22;7878;44.632;10.942;2022-11-11T10:59:00;33.00;85.20
15554;DHT22;7878;44.632;10.942;2022-11-11T11:01:47;32.80;84.70
15554;DHT22;7878;44.632;10.942;2022-11-11T11:04:19;33.30;79.80
15554;DHT22;7878;44.632;10.942;2022-11-11T11:06:49;34.50;84.70
15554;DHT22;7878;44.632;10.942;2022-11-11T11:09:26;35.40;85.20
15554;DHT22;7878;44.632;10.942;2022-11-11T11:11:58;36.20;77.50
15554;DHT22;7878;44.632;10.942;2022-11-11T11:14:32;36.50;79.30
15554;DHT22;7878;44.632;10.942;2022-11-11T11:17:04;37.00;75.00
15554;DHT22;7878;44.632;10.942;2022-11-11T11:19:31;37.40;78.70
15554;DHT22;7878;44.632;10.942;2022-11-11T11:22:00;37.30;80.50
15554;DHT22;7878;44.632;10.942;2022-11-11T11:24:31;36.90;76.40
15554;DHT22;7878;44.632;10.942;2022-11-11T11:26:59;36.50;74.60
15554;DHT22;7878;44.632;10.942;2022-11-11T11:29:37;36.20;76.90
15554;DHT22;7878;44.632;10.942;2022-11-11T11:32:17;35.30;70.60
15554;DHT22;7878;44.632;10.942;2022-11-11T11:34:48;34.00;68.90
15554;DHT22;7878;44.632;10.942;2022-11-11T11:37:15;33.00;75.70
15554;DHT22;7878;44.632;10.942;2022-11-11T11:39:41;32.60;80.00
15554;DHT22;7878;44.632;10.942;2022-11-11T11:42:07;32.80;81.70
15554;DHT22;7878;44.632;10.942;2022-11-11T11:44:37;33.70;81.50
15554;DHT22;7878;44.632;10.942;2022-11-11T12:01:34;33.60;69.70
15554;DHT22;7878;44.632;10.942;2022-11-11T12:04:45;32.80;72.20
15554;DHT22;7878;44.632;10.942;2022-11-11T12:07:18;32.20;73.40
15554;DHT22;7878;44.632;10.942;2022-11-11T12:15:55;31.70;71.60
15554;DHT22;7878;44.632;10.942;2022-11-11T12:20:54;30.30;78.90
15554;DHT22;7878;44.632;10.942;2022-11-11T12:29:05;27.60;82.60
15554;DHT22;7878;44.632;10.942;2022-11-11T12:32:29;27.20;83.80
15554;DHT22;7878;44.632;10.942;2022-11-11T12:34:38;27.30;81.30
15554;DHT22;7878;44.632;10.942;2022-11-11T12:40:13;27.70;81.90
15554;DHT22;7878;44.632;10.942;2022-11-11T12:45:55;27.40;79.50
15554;DHT22;7878;44.632;10.942;2022-11-11T12:51:35;27.20;84.30
15554;DHT22;7878;44.632;10.942;2022-11-11T13:00:03;25.10;86.40
15554;DHT22;7878;44.632;10.942;2022-11-11T13:16:10;23.00;90.20
15554;DHT22;7878;44.632;10.942;2022-11-11T13:21:56;22.80;90.70
15554;DHT22;7878;44.632;10.942;2022-11-11T13:24:23;22.60;91.40
15554;DHT22;7878;44.632;10.942;2022-11-11T13:35:56;21.90;93.00
15554;DHT22;7878;44.632;10.942;2022-11-11T13:38:36;21.90;93.50
15554;DHT22;7878;44.632;10.942;2022-11-11T13:41:08;21.80;93.20
15554;DHT22;7878;44.632;10.942;2022-11-11T13:43:42;21.70;93.70
15554;DHT22;7878;44.632;10.942;2022-11-11T13:48:55;21.60;94.00
15554;DHT22;7878;44.632;10.942;2022-11-11T13:51:34;21.50;94.50
15554;DHT22;7878;44.632;10.942;2022-11-11T13:54:04;21.30;94.70
15554;DHT22;7878;44.632;10.942;2022-11-11T13:56:45;21.30;95.20
15554;DHT22;7878;44.632;10.942;2022-11-11T13:59:23;21.20;95.30
15554;DHT22;7878;44.632;10.942;2022-11-11T14:02:12;21.10;95.60
15554;DHT22;7878;44.632;10.942;2022-11-11T14:20:45;20.70;97.30
15554;DHT22;7878;44.632;10.942;2022-11-11T14:25:47;20.70;97.80
15554;DHT22;7878;44.632;10.942;2022-11-11T14:28:28;20.60;98.20
15554;DHT22;7878;44.632;10.942;2022-11-11T14:39:29;20.40;99.20
15554;DHT22;7878;44.632;10.942;2022-11-11T14:41:56;20.30;99.50
15554;DHT22;7878;44.632;10.942;2022-11-11T15:00:31;19.70;99.90
15554;DHT22;7878;44.632;10.942;2022-11-11T15:03:08;19.60;99.90
15554;DHT22;7878;44.632;10.942;2022-11-11T15:08:41;19.50;99.90
15554;DHT22;7878;44.632;10.942;2022-11-11T15:11:20;19.50;99.90
15554;DHT22;7878;44.632;10.942;2022-11-11T15:30:15;19.10;99.90
15554;DHT22;7878;44.632;10.942;2022-11-11T15:38:13;19.00;99.90
15554;DHT22;7878;44.632;10.942;2022-11-11T15:40:45;18.90;99.90
15554;DHT22;7878;44.632;10.942;2022-11-11T15:43:24;18.90;99.90
15554;DHT22;7878;44.632;10.942;2022-11-11T15:45:53;18.90;99.90
15554;DHT22;7878;44.632;10.942;2022-11-11T15:48:33;18.80;99.90
15554;DHT22;7878;44.632;10.942;2022-11-11T15:53:47;18.80;99.90
15554;DHT22;7878;44.632;10.942;2022-11-11T15:56:32;18.70;99.90
15554;DHT22;7878;44.632;10.942;2022-11-11T15:59:20;18.70;99.90
15554;DHT22;7878;44.632;10.942;2022-11-11T16:01:46;18.70;99.90
15554;DHT22;7878;44.632;10.942;2022-11-11T16:04:19;18.60;99.90
15554;DHT22;7878;44.632;10.942;2022-11-11T16:06:46;18.60;99.90
15554;DHT22;7878;44.632;10.942;2022-11-11T16:09:14;18.50;99.90
15554;DHT22;7878;44.632;10.942;2022-11-11T16:11:41;18.50;99.90
15554;DHT22;7878;44.632;10.942;2022-11-11T16:14:18;18.40;99.90
15554;DHT22;7878;44.632;10.942;2022-11-11T16:16:46;18.40;99.90
15554;DHT22;7878;44.632;10.942;2022-11-11T16:24:29;18.20;99.90
15554;DHT22;7878;44.632;10.942;2022-11-11T16:26:56;18.20;99.90
15554;DHT22;7878;44.632;10.942;2022-11-11T16:29:31;18.20;99.90
15554;DHT22;7878;44.632;10.942;2022-11-11T16:31:57;18.10;99.90
15554;DHT22;7878;44.632;10.942;2022-11-11T16:37:02;18.10;99.90
15554;DHT22;7878;44.632;10.942;2022-11-11T16:39:29;18.10;99.90
15554;DHT22;7878;44.632;10.942;2022-11-11T16:41:56;18.10;99.90
15554;DHT22;7878;44.632;10.942;2022-11-11T16:44:44;18.00;99.90
15554;DHT22;7878;44.632;10.942;2022-11-11T16:47:41;18.00;99.90
15554;DHT22;7878;44.632;10.942;2022-11-11T16:50:18;17.90;99.90
15554;DHT22;7878;44.632;10.942;2022-11-11T16:52:56;17.90;99.90
15554;DHT22;7878;44.632;10.942;2022-11-11T16:55:36;17.90;99.90
15554;DHT22;7878;44.632;10.942;2022-11-11T17:00:40;17.90;99.90
15554;DHT22;7878;44.632;10.942;2022-11-11T17:03:16;17.80;99.90
15554;DHT22;7878;44.632;10.942;2022-11-11T17:06:02;17.80;99.90
15554;DHT22;7878;44.632;10.942;2022-11-11T17:08:40;17.80;99.90
15554;DHT22;7878;44.632;10.942;2022-11-11T17:11:10;17.70;99.90
15554;DHT22;7878;44.632;10.942;2022-11-11T17:13:36;17.70;99.90
15554;DHT22;7878;44.632;10.942;2022-11-11T17:16:04;17.70;99.90
15554;DHT22;7878;44.632;10.942;2022-11-11T17:18:36;17.70;99.90
15554;DHT22;7878;44.632;10.942;2022-11-11T17:21:03;17.60;99.90
15554;DHT22;7878;44.632;10.942;2022-11-11T17:23:29;17.60;99.90
15554;DHT22;7878;44.632;10.942;2022-11-11T17:25:57;17.60;99.90
15554;DHT22;7878;44.632;10.942;2022-11-11T17:28:26;17.60;99.90
15554;DHT22;7878;44.632;10.942;2022-11-11T17:30:51;17.60;99.90
15554;DHT22;7878;44.632;10.942;2022-11-11T17:33:17;17.50;99.90
15554;DHT22;7878;44.632;10.942;2022-11-11T17:35:50;17.50;99.90
15554;DHT22;7878;44.632;10.942;2022-11-11T17:38:16;17.50;99.90
15554;DHT22;7878;44.632;10.942;2022-11-11T17:40:46;17.40;99.90
15554;DHT22;7878;44.632;10.942;2022-11-11T17:43:13;17.40;99.90
15554;DHT22;7878;44.632;10.942;2022-11-11T17:45:38;17.40;99.90
15554;DHT22;7878;44.632;10.942;2022-11-11T17:48:05;17.40;99.90
15554;DHT22;7878;44.632;10.942;2022-11-11T17:50:30;17.40;99.90
15554;DHT22;7878;44.632;10.942;2022-11-11T17:52:56;17.40;99.90
15554;DHT22;7878;44.632;10.942;2022-11-11T17:55:22;17.40;99.90
15554;DHT22;7878;44.632;10.942;2022-11-11T17:57:48;17.30;99.90
15554;DHT22;7878;44.632;10.942;2022-11-11T18:00:15;17.30;99.90
15554;DHT22;7878;44.632;10.942;2022-11-11T18:02:41;17.30;99.90
15554;DHT22;7878;44.632;10.942;2022-11-11T18:05:07;17.30;99.90
15554;DHT22;7878;44.632;10.942;2022-11-11T18:07:33;17.30;99.90
15554;DHT22;7878;44.632;10.942;2022-11-11T18:09:58;17.30;99.90
15554;DHT22;7878;44.632;10.942;2022-11-11T18:12:26;17.30;99.90
15554;DHT22;7878;44.632;10.942;2022-11-11T18:14:52;17.30;99.90
15554;DHT22;7878;44.632;10.942;2022-11-11T18:17:18;17.30;99.90
15554;DHT22;7878;44.632;10.942;2022-11-11T18:19:43;17.20;99.90
15554;DHT22;7878;44.632;10.942;2022-11-11T18:22:09;17.20;99.90
15554;DHT22;7878;44.632;10.942;2022-11-11T18:24:35;17.20;99.90
15554;DHT22;7878;44.632;10.942;2022-11-11T18:27:00;17.10;99.90
15554;DHT22;7878;44.632;10.942;2022-11-11T18:29:26;17.10;99.90
15554;DHT22;7878;44.632;10.942;2022-11-11T18:31:53;17.10;99.90
15554;DHT22;7878;44.632;10.942;2022-11-11T18:34:18;17.10;99.90
15554;DHT22;7878;44.632;10.942;2022-11-11T18:36:44;17.00;99.90
15554;DHT22;7878;44.632;10.942;2022-11-11T18:39:09;17.10;99.90
15554;DHT22;7878;44.632;10.942;2022-11-11T18:41:35;17.00;99.90
15554;DHT22;7878;44.632;10.942;2022-11-11T18:44:01;17.00;99.90
15554;DHT22;7878;44.632;10.942;2022-11-11T18:46:27;17.00;99.90
15554;DHT22;7878;44.632;10.942;2022-11-11T18:48:58;17.00;99.90
15554;DHT22;7878;44.632;10.942;2022-11-11T18:51:25;17.00;99.90
15554;DHT22;7878;44.632;10.942;2022-11-11T18:53:51;17.00;99.90
15554;DHT22;7878;44.632;10.942;2022-11-11T18:56:21;17.00;99.90